sensor_id;sensor_type;location;lat;lon;timestamp;temperature;humidity
21312;DHT22;18076;52.154;10.570;2023-12-07T00:01:03;2.60;99.90
21312;DHT22;18076;52.154;10.570;2023-12-07T00:03:29;2.60;99.90
21312;DHT22;18076;52.154;10.570;2023-12-07T00:05:54;2.70;99.90
21312;DHT22;18076;52.154;10.570;2023-12-07T00:08:20;2.70;99.90
21312;DHT22;18076;52.154;10.570;2023-12-07T00:10:45;2.60;99.90
21312;DHT22;18076;52.154;10.570;2023-12-07T00:13:11;2.70;99.90
21312;DHT22;18076;52.154;10.570;2023-12-07T00:15:36;2.70;99.90
21312;DHT22;18076;52.154;10.570;2023-12-07T00:18:02;2.70;99.90
21312;DHT22;18076;52.154;10.570;2023-12-07T00:20:28;2.70;99.90
21312;DHT22;18076;52.154;10.570;2023-12-07T00:22:54;2.70;99.90
21312;DHT22;18076;52.154;10.570;2023-12-07T00:25:21;2.70;99.90
21312;DHT22;18076;52.154;10.570;2023-12-07T00:27:47;2.70;99.90
21312;DHT22;18076;52.154;10.570;2023-12-07T00:30:13;2.70;99.90
21312;DHT22;18076;52.154;10.570;2023-12-07T00:32:38;2.70;99.90
21312;DHT22;18076;52.154;10.570;2023-12-07T00:35:05;2.70;99.90
21312;DHT22;18076;52.154;10.570;2023-12-07T00:37:31;2.70;99.90
21312;DHT22;18076;52.154;10.570;2023-12-07T00:39:56;2.70;99.90
21312;DHT22;18076;52.154;10.570;2023-12-07T00:42:22;2.70;99.90
21312;DHT22;18076;52.154;10.570;2023-12-07T00:44:47;2.70;99.90
21312;DHT22;18076;52.154;10.570;2023-12-07T00:47:13;2.70;99.90
21312;DHT22;18076;52.154;10.570;2023-12-07T00:49:38;2.70;99.90
21312;DHT22;18076;52.154;10.570;2023-12-07T00:52:06;2.70;99.90
21312;DHT22;18076;52.154;10.570;2023-12-07T00:54:32;2.70;99.90
21312;DHT22;18076;52.154;10.570;2023-12-07T00:56:57;2.60;99.90
21312;DHT22;18076;52.154;10.570;2023-12-07T00:59:23;2.60;99.90
21312;DHT22;18076;52.154;10.570;2023-12-07T01:01:49;2.70;99.90
21312;DHT22;18076;52.154;10.570;2023-12-07T01:04:14;2.70;99.90
21312;DHT22;18076;52.154;10.570;2023-12-07T01:06:40;2.70;99.90
21312;DHT22;18076;52.154;10.570;2023-12-07T01:09:05;2.70;99.90
21312;DHT22;18076;52.154;10.570;2023-12-07T01:11:31;2.70;99.90
21312;DHT22;18076;52.154;10.570;2023-12-07T01:13:56;2.70;99.90
21312;DHT22;18076;52.154;10.570;2023-12-07T01:16:22;2.70;99.90
21312;DHT22;18076;52.154;10.570;2023-12-07T01:18:47;2.70;99.90
21312;DHT22;18076;52.154;10.570;2023-12-07T01:21:13;2.70;99.90
21312;DHT22;18076;52.154;10.570;2023-12-07T01:23:38;2.70;99.90
21312;DHT22;18076;52.154;10.570;2023-12-07T01:26:04;2.70;99.90
21312;DHT22;18076;52.154;10.570;2023-12-07T01:28:29;2.70;99.90
21312;DHT22;18076;52.154;10.570;2023-12-07T01:30:56;2.70;99.90
21312;DHT22;18076;52.154;10.570;2023-12-07T01:33:21;2.70;99.90
21312;DHT22;18076;52.154;10.570;2023-12-07T01:35:47;2.70;99.90
21312;DHT22;18076;52.154;10.570;2023-12-07T01:38:12;2.80;99.90
21312;DHT22;18076;52.154;10.570;2023-12-07T01:40:38;2.80;99.90
21312;DHT22;18076;52.154;10.570;2023-12-07T01:43:03;2.80;99.90
21312;DHT22;18076;52.154;10.570;2023-12-07T01:45:29;2.80;99.90
21312;DHT22;18076;52.154;10.570;2023-12-07T01:47:54;2.80;99.90
21312;DHT22;18076;52.154;10.570;2023-12-07T01:50:25;2.80;99.90
21312;DHT22;18076;52.154;10.570;2023-12-07T01:52:52;2.80;99.90
21312;DHT22;18076;52.154;10.570;2023-12-07T01:55:19;2.80;99.90
21312;DHT22;18076;52.154;10.570;2023-12-07T01:57:46;2.80;99.90
21312;DHT22;18076;52.154;10.570;2023-12-07T02:00:15;2.80;99.90
21312;DHT22;18076;52.154;10.570;2023-12-07T02:02:41;2.90;99.90
21312;DHT22;18076;52.154;10.570;2023-12-07T02:05:07;2.80;99.90
21312;DHT22;18076;52.154;10.570;2023-12-07T02:07:33;2.80;99.90
21312;DHT22;18076;52.154;10.570;2023-12-07T02:09:59;2.80;99.90
21312;DHT22;18076;52.154;10.570;2023-12-07T02:12:25;2.90;99.90
21312;DHT22;18076;52.154;10.570;2023-12-07T02:14:51;2.90;99.90
21312;DHT22;18076;52.154;10.570;2023-12-07T02:17:21;2.90;99.90
21312;DHT22;18076;52.154;10.570;2023-12-07T02:20:07;2.90;99.90
21312;DHT22;18076;52.154;10.570;2023-12-07T02:22:41;2.90;99.90
21312;DHT22;18076;52.154;10.570;2023-12-07T02:25:09;2.90;99.90
21312;DHT22;18076;52.154;10.570;2023-12-07T02:27:36;2.90;99.90
21312;DHT22;18076;52.154;10.570;2023-12-07T02:30:02;2.90;99.90
21312;DHT22;18076;52.154;10.570;2023-12-07T02:32:27;2.90;99.90
21312;DHT22;18076;52.154;10.570;2023-12-07T02:34:53;2.90;99.90
21312;DHT22;18076;52.154;10.570;2023-12-07T02:37:20;2.90;99.90
21312;DHT22;18076;52.154;10.570;2023-12-07T02:39:46;2.90;99.90
21312;DHT22;18076;52.154;10.570;2023-12-07T02:42:13;2.90;99.90
21312;DHT22;18076;52.154;10.570;2023-12-07T02:44:39;2.90;99.90
21312;DHT22;18076;52.154;10.570;2023-12-07T02:47:05;3.00;99.90
21312;DHT22;18076;52.154;10.570;2023-12-07T02:49:30;2.90;99.90
21312;DHT22;18076;52.154;10.570;2023-12-07T02:51:56;3.00;99.90
21312;DHT22;18076;52.154;10.570;2023-12-07T02:54:22;3.00;99.90
21312;DHT22;18076;52.154;10.570;2023-12-07T02:56:51;3.00;99.90
21312;DHT22;18076;52.154;10.570;2023-12-07T02:59:16;2.90;99.90
21312;DHT22;18076;52.154;10.570;2023-12-07T03:01:42;2.90;99.90
21312;DHT22;18076;52.154;10.570;2023-12-07T03:04:07;2.90;99.90
21312;DHT22;18076;52.154;10.570;2023-12-07T03:06:33;2.90;99.90
21312;DHT22;18076;52.154;10.570;2023-12-07T03:08:58;2.90;99.90
21312;DHT22;18076;52.154;10.570;2023-12-07T03:11:24;3.00;99.90
21312;DHT22;18076;52.154;10.570;2023-12-07T03:13:49;3.00;99.90
21312;DHT22;18076;52.154;10.570;2023-12-07T03:16:15;2.90;99.90
21312;DHT22;18076;52.154;10.570;2023-12-07T03:18:40;3.00;99.90
21312;DHT22;18076;52.154;10.570;2023-12-07T03:21:06;3.00;99.90
21312;DHT22;18076;52.154;10.570;2023-12-07T03:23:32;3.00;99.90
21312;DHT22;18076;52.154;10.570;2023-12-07T03:25:58;3.00;99.90
21312;DHT22;18076;52.154;10.570;2023-12-07T03:28:23;3.00;99.90
21312;DHT22;18076;52.154;10.570;2023-12-07T03:30:49;3.00;99.90
21312;DHT22;18076;52.154;10.570;2023-12-07T03:33:14;3.00;99.90
21312;DHT22;18076;52.154;10.570;2023-12-07T03:35:40;3.00;99.90
21312;DHT22;18076;52.154;10.570;2023-12-07T03:38:06;3.00;99.90
21312;DHT22;18076;52.154;10.570;2023-12-07T03:40:31;3.00;99.90
21312;DHT22;18076;52.154;10.570;2023-12-07T03:42:57;3.00;99.90
21312;DHT22;18076;52.154;10.570;2023-12-07T03:45:23;3.00;99.90
21312;DHT22;18076;52.154;10.570;2023-12-07T03:47:49;3.00;99.90
21312;DHT22;18076;52.154;10.570;2023-12-07T03:50:14;3.00;99.90
21312;DHT22;18076;52.154;10.570;2023-12-07T03:52:40;3.00;99.90
21312;DHT22;18076;52.154;10.570;2023-12-07T03:55:06;3.00;99.90
21312;DHT22;18076;52.154;10.570;2023-12-07T03:57:31;3.00;99.90
21312;DHT22;18076;52.154;10.570;2023-12-07T03:59:57;3.00;99.90
21312;DHT22;18076;52.154;10.570;2023-12-07T04:02:22;3.00;99.90
21312;DHT22;18076;52.154;10.570;2023-12-07T04:04:48;3.00;99.90
21312;DHT22;18076;52.154;10.570;2023-12-07T04:07:14;3.00;99.90
21312;DHT22;18076;52.154;10.570;2023-12-07T04:09:39;3.00;99.90
21312;DHT22;18076;52.154;10.570;2023-12-07T04:12:05;3.00;99.90
21312;DHT22;18076;52.154;10.570;2023-12-07T04:14:30;3.00;99.90
21312;DHT22;18076;52.154;10.570;2023-12-07T04:16:56;3.00;99.90
21312;DHT22;18076;52.154;10.570;2023-12-07T04:19:22;3.00;99.90
21312;DHT22;18076;52.154;10.570;2023-12-07T04:21:47;3.00;99.90
21312;DHT22;18076;52.154;10.570;2023-12-07T04:24:13;3.00;99.90
21312;DHT22;18076;52.154;10.570;2023-12-07T04:26:38;3.00;99.90
21312;DHT22;18076;52.154;10.570;2023-12-07T04:29:04;3.00;99.90
21312;DHT22;18076;52.154;10.570;2023-12-07T04:31:30;3.00;99.90
21312;DHT22;18076;52.154;10.570;2023-12-07T04:33:55;2.90;99.90
21312;DHT22;18076;52.154;10.570;2023-12-07T04:36:21;3.00;99.90
21312;DHT22;18076;52.154;10.570;2023-12-07T04:38:46;3.00;99.90
21312;DHT22;18076;52.154;10.570;2023-12-07T04:41:12;2.90;99.90
21312;DHT22;18076;52.154;10.570;2023-12-07T04:43:37;2.90;99.90
21312;DHT22;18076;52.154;10.570;2023-12-07T04:46:03;2.90;99.90
21312;DHT22;18076;52.154;10.570;2023-12-07T04:48:29;3.00;99.90
21312;DHT22;18076;52.154;10.570;2023-12-07T04:50:54;2.90;99.90
21312;DHT22;18076;52.154;10.570;2023-12-07T04:53:20;2.90;99.90
21312;DHT22;18076;52.154;10.570;2023-12-07T04:55:45;2.90;99.90
21312;DHT22;18076;52.154;10.570;2023-12-07T04:58:15;2.90;99.90
21312;DHT22;18076;52.154;10.570;2023-12-07T05:00:41;2.90;99.90
21312;DHT22;18076;52.154;10.570;2023-12-07T05:03:06;2.90;99.90
21312;DHT22;18076;52.154;10.570;2023-12-07T05:05:32;2.90;99.90
21312;DHT22;18076;52.154;10.570;2023-12-07T05:07:58;2.80;99.90
21312;DHT22;18076;52.154;10.570;2023-12-07T05:10:23;2.90;99.90
21312;DHT22;18076;52.154;10.570;2023-12-07T05:12:49;2.80;99.90
21312;DHT22;18076;52.154;10.570;2023-12-07T05:15:15;2.90;99.90
21312;DHT22;18076;52.154;10.570;2023-12-07T05:17:41;2.90;99.90
21312;DHT22;18076;52.154;10.570;2023-12-07T05:20:06;2.90;99.90
21312;DHT22;18076;52.154;10.570;2023-12-07T05:22:32;2.90;99.90
21312;DHT22;18076;52.154;10.570;2023-12-07T05:24:58;2.90;99.90
21312;DHT22;18076;52.154;10.570;2023-12-07T05:27:23;2.80;99.90
21312;DHT22;18076;52.154;10.570;2023-12-07T05:29:49;2.80;99.90
21312;DHT22;18076;52.154;10.570;2023-12-07T05:32:14;2.80;99.90
21312;DHT22;18076;52.154;10.570;2023-12-07T05:34:40;2.80;99.90
21312;DHT22;18076;52.154;10.570;2023-12-07T05:37:05;2.80;99.90
21312;DHT22;18076;52.154;10.570;2023-12-07T05:39:31;2.80;99.90
21312;DHT22;18076;52.154;10.570;2023-12-07T05:41:57;2.80;99.90
21312;DHT22;18076;52.154;10.570;2023-12-07T05:44:22;2.80;99.90
21312;DHT22;18076;52.154;10.570;2023-12-07T05:46:48;2.80;99.90
21312;DHT22;18076;52.154;10.570;2023-12-07T05:49:14;2.80;99.90
21312;DHT22;18076;52.154;10.570;2023-12-07T05:51:42;2.80;99.90
21312;DHT22;18076;52.154;10.570;2023-12-07T05:54:07;2.80;99.90
21312;DHT22;18076;52.154;10.570;2023-12-07T05:56:33;2.80;99.90
21312;DHT22;18076;52.154;10.570;2023-12-07T05:58:59;2.80;99.90
21312;DHT22;18076;52.154;10.570;2023-12-07T06:01:24;2.70;99.90
21312;DHT22;18076;52.154;10.570;2023-12-07T06:03:50;2.70;99.90
21312;DHT22;18076;52.154;10.570;2023-12-07T06:06:16;2.70;99.90
21312;DHT22;18076;52.154;10.570;2023-12-07T06:08:42;2.70;99.90
21312;DHT22;18076;52.154;10.570;2023-12-07T06:11:07;2.70;99.90
21312;DHT22;18076;52.154;10.570;2023-12-07T06:13:33;2.70;99.90
21312;DHT22;18076;52.154;10.570;2023-12-07T06:15:59;2.70;99.90
21312;DHT22;18076;52.154;10.570;2023-12-07T06:18:24;2.70;99.90
21312;DHT22;18076;52.154;10.570;2023-12-07T06:20:50;2.70;99.90
21312;DHT22;18076;52.154;10.570;2023-12-07T06:23:15;2.70;99.90
21312;DHT22;18076;52.154;10.570;2023-12-07T06:25:41;2.70;99.90
21312;DHT22;18076;52.154;10.570;2023-12-07T06:28:07;2.70;99.90
21312;DHT22;18076;52.154;10.570;2023-12-07T06:30:32;2.70;99.90
21312;DHT22;18076;52.154;10.570;2023-12-07T06:32:58;2.70;99.90
21312;DHT22;18076;52.154;10.570;2023-12-07T06:35:24;2.70;99.90
21312;DHT22;18076;52.154;10.570;2023-12-07T06:37:49;2.70;99.90
21312;DHT22;18076;52.154;10.570;2023-12-07T06:40:15;2.70;99.90
21312;DHT22;18076;52.154;10.570;2023-12-07T06:42:40;2.70;99.90
21312;DHT22;18076;52.154;10.570;2023-12-07T06:45:06;2.70;99.90
21312;DHT22;18076;52.154;10.570;2023-12-07T06:47:39;2.70;99.90
21312;DHT22;18076;52.154;10.570;2023-12-07T06:50:05;2.70;99.90
21312;DHT22;18076;52.154;10.570;2023-12-07T06:52:35;2.70;99.90
21312;DHT22;18076;52.154;10.570;2023-12-07T06:55:01;2.70;99.90
21312;DHT22;18076;52.154;10.570;2023-12-07T06:57:26;2.80;99.90
21312;DHT22;18076;52.154;10.570;2023-12-07T06:59:52;2.80;99.90
21312;DHT22;18076;52.154;10.570;2023-12-07T07:02:18;2.80;99.90
21312;DHT22;18076;52.154;10.570;2023-12-07T07:04:43;2.80;99.90
21312;DHT22;18076;52.154;10.570;2023-12-07T07:07:09;2.90;99.90
21312;DHT22;18076;52.154;10.570;2023-12-07T07:09:35;2.90;99.90
21312;DHT22;18076;52.154;10.570;2023-12-07T07:12:00;2.80;99.90
21312;DHT22;18076;52.154;10.570;2023-12-07T07:14:26;2.80;99.90
21312;DHT22;18076;52.154;10.570;2023-12-07T07:16:52;2.80;99.90
21312;DHT22;18076;52.154;10.570;2023-12-07T07:19:29;2.80;99.90
21312;DHT22;18076;52.154;10.570;2023-12-07T07:21:56;2.80;99.90
21312;DHT22;18076;52.154;10.570;2023-12-07T07:24:40;2.80;99.90
21312;DHT22;18076;52.154;10.570;2023-12-07T07:27:06;2.90;99.90
21312;DHT22;18076;52.154;10.570;2023-12-07T07:29:31;2.90;99.90
21312;DHT22;18076;52.154;10.570;2023-12-07T07:31:57;2.90;99.90
21312;DHT22;18076;52.154;10.570;2023-12-07T07:34:23;2.80;99.90
21312;DHT22;18076;52.154;10.570;2023-12-07T07:36:50;2.80;99.90
21312;DHT22;18076;52.154;10.570;2023-12-07T07:39:15;2.80;99.90
21312;DHT22;18076;52.154;10.570;2023-12-07T07:41:41;2.90;99.90
21312;DHT22;18076;52.154;10.570;2023-12-07T07:44:06;2.90;99.90
21312;DHT22;18076;52.154;10.570;2023-12-07T07:46:32;2.90;99.90
21312;DHT22;18076;52.154;10.570;2023-12-07T07:48:58;2.90;99.90
21312;DHT22;18076;52.154;10.570;2023-12-07T07:51:23;2.80;99.90
21312;DHT22;18076;52.154;10.570;2023-12-07T07:53:49;2.90;99.90
21312;DHT22;18076;52.154;10.570;2023-12-07T07:56:15;2.90;99.90
21312;DHT22;18076;52.154;10.570;2023-12-07T07:58:40;2.90;99.90
21312;DHT22;18076;52.154;10.570;2023-12-07T08:01:06;2.90;99.90
21312;DHT22;18076;52.154;10.570;2023-12-07T08:03:31;2.90;99.90
21312;DHT22;18076;52.154;10.570;2023-12-07T08:05:57;2.90;99.90
21312;DHT22;18076;52.154;10.570;2023-12-07T08:08:22;3.00;99.90
21312;DHT22;18076;52.154;10.570;2023-12-07T08:10:48;3.00;99.90
21312;DHT22;18076;52.154;10.570;2023-12-07T08:13:14;3.00;99.90
21312;DHT22;18076;52.154;10.570;2023-12-07T08:15:39;3.00;99.90
21312;DHT22;18076;52.154;10.570;2023-12-07T08:18:05;3.00;99.90
21312;DHT22;18076;52.154;10.570;2023-12-07T08:20:30;3.00;99.90
21312;DHT22;18076;52.154;10.570;2023-12-07T08:23:03;3.10;99.90
21312;DHT22;18076;52.154;10.570;2023-12-07T08:25:28;3.10;99.90
21312;DHT22;18076;52.154;10.570;2023-12-07T08:27:54;3.10;99.90
21312;DHT22;18076;52.154;10.570;2023-12-07T08:30:19;3.20;99.90
21312;DHT22;18076;52.154;10.570;2023-12-07T08:32:45;3.20;99.90
21312;DHT22;18076;52.154;10.570;2023-12-07T08:38:07;3.20;99.90
21312;DHT22;18076;52.154;10.570;2023-12-07T08:40:33;3.20;99.90
21312;DHT22;18076;52.154;10.570;2023-12-07T08:42:58;3.20;99.90
21312;DHT22;18076;52.154;10.570;2023-12-07T08:45:24;3.20;99.90
21312;DHT22;18076;52.154;10.570;2023-12-07T08:47:49;3.20;99.90
21312;DHT22;18076;52.154;10.570;2023-12-07T08:50:15;3.20;99.90
21312;DHT22;18076;52.154;10.570;2023-12-07T08:52:50;3.30;99.90
21312;DHT22;18076;52.154;10.570;2023-12-07T08:55:16;3.30;99.90
21312;DHT22;18076;52.154;10.570;2023-12-07T08:57:42;3.30;99.90
21312;DHT22;18076;52.154;10.570;2023-12-07T09:00:07;3.30;99.90
21312;DHT22;18076;52.154;10.570;2023-12-07T09:02:33;3.30;99.90
21312;DHT22;18076;52.154;10.570;2023-12-07T09:04:58;3.30;99.90
21312;DHT22;18076;52.154;10.570;2023-12-07T09:07:24;3.30;99.90
21312;DHT22;18076;52.154;10.570;2023-12-07T09:09:49;3.40;99.90
21312;DHT22;18076;52.154;10.570;2023-12-07T09:12:15;3.40;99.90
21312;DHT22;18076;52.154;10.570;2023-12-07T09:14:41;3.50;99.90
21312;DHT22;18076;52.154;10.570;2023-12-07T09:17:14;3.50;99.90
21312;DHT22;18076;52.154;10.570;2023-12-07T09:19:44;3.50;99.90
21312;DHT22;18076;52.154;10.570;2023-12-07T09:22:09;3.60;99.90
21312;DHT22;18076;52.154;10.570;2023-12-07T09:24:35;3.60;99.90
21312;DHT22;18076;52.154;10.570;2023-12-07T09:27:00;3.60;99.90
21312;DHT22;18076;52.154;10.570;2023-12-07T09:29:26;3.60;99.90
21312;DHT22;18076;52.154;10.570;2023-12-07T09:31:55;3.70;99.90
21312;DHT22;18076;52.154;10.570;2023-12-07T09:34:54;3.70;99.90
21312;DHT22;18076;52.154;10.570;2023-12-07T09:37:19;3.70;99.90
21312;DHT22;18076;52.154;10.570;2023-12-07T09:39:45;3.80;99.90
21312;DHT22;18076;52.154;10.570;2023-12-07T09:42:11;3.80;99.90
21312;DHT22;18076;52.154;10.570;2023-12-07T09:44:37;3.80;99.90
21312;DHT22;18076;52.154;10.570;2023-12-07T09:47:02;3.80;99.90
21312;DHT22;18076;52.154;10.570;2023-12-07T09:49:29;3.90;99.90
21312;DHT22;18076;52.154;10.570;2023-12-07T09:51:55;3.90;99.90
21312;DHT22;18076;52.154;10.570;2023-12-07T09:54:21;3.90;99.90
21312;DHT22;18076;52.154;10.570;2023-12-07T09:56:47;3.90;99.90
21312;DHT22;18076;52.154;10.570;2023-12-07T09:59:13;3.90;99.90
21312;DHT22;18076;52.154;10.570;2023-12-07T10:01:38;3.90;99.90
21312;DHT22;18076;52.154;10.570;2023-12-07T10:04:20;3.90;99.90
21312;DHT22;18076;52.154;10.570;2023-12-07T10:07:09;4.00;99.90
21312;DHT22;18076;52.154;10.570;2023-12-07T10:09:39;4.00;99.90
21312;DHT22;18076;52.154;10.570;2023-12-07T10:12:05;4.00;99.90
21312;DHT22;18076;52.154;10.570;2023-12-07T10:14:31;4.00;99.90
21312;DHT22;18076;52.154;10.570;2023-12-07T10:16:57;4.10;99.90
21312;DHT22;18076;52.154;10.570;2023-12-07T10:19:43;4.10;99.90
21312;DHT22;18076;52.154;10.570;2023-12-07T10:22:14;4.10;99.90
21312;DHT22;18076;52.154;10.570;2023-12-07T10:28:04;4.00;99.90
21312;DHT22;18076;52.154;10.570;2023-12-07T10:30:32;4.00;99.90
21312;DHT22;18076;52.154;10.570;2023-12-07T10:32:58;4.00;99.90
21312;DHT22;18076;52.154;10.570;2023-12-07T10:35:24;4.00;99.90
21312;DHT22;18076;52.154;10.570;2023-12-07T10:37:50;4.10;99.90
21312;DHT22;18076;52.154;10.570;2023-12-07T10:40:15;4.10;99.90
21312;DHT22;18076;52.154;10.570;2023-12-07T10:42:41;4.10;99.90
21312;DHT22;18076;52.154;10.570;2023-12-07T10:45:08;4.10;99.90
21312;DHT22;18076;52.154;10.570;2023-12-07T10:47:40;4.10;99.90
21312;DHT22;18076;52.154;10.570;2023-12-07T10:50:07;4.10;99.90
21312;DHT22;18076;52.154;10.570;2023-12-07T10:52:50;4.20;99.90
21312;DHT22;18076;52.154;10.570;2023-12-07T10:55:17;4.20;99.90
21312;DHT22;18076;52.154;10.570;2023-12-07T10:57:45;4.20;99.90
21312;DHT22;18076;52.154;10.570;2023-12-07T11:00:11;4.20;99.90
21312;DHT22;18076;52.154;10.570;2023-12-07T11:02:37;4.20;99.90
21312;DHT22;18076;52.154;10.570;2023-12-07T11:05:04;4.20;99.90
21312;DHT22;18076;52.154;10.570;2023-12-07T11:07:36;4.20;99.90
21312;DHT22;18076;52.154;10.570;2023-12-07T11:10:18;4.30;99.90
21312;DHT22;18076;52.154;10.570;2023-12-07T11:15:38;4.40;99.90
21312;DHT22;18076;52.154;10.570;2023-12-07T11:18:27;4.40;99.90
21312;DHT22;18076;52.154;10.570;2023-12-07T11:20:54;4.30;99.90
21312;DHT22;18076;52.154;10.570;2023-12-07T11:23:20;4.30;99.90
21312;DHT22;18076;52.154;10.570;2023-12-07T11:25:55;4.30;99.90
21312;DHT22;18076;52.154;10.570;2023-12-07T11:28:41;4.30;99.90
21312;DHT22;18076;52.154;10.570;2023-12-07T11:31:15;4.30;99.90
21312;DHT22;18076;52.154;10.570;2023-12-07T11:33:41;4.30;99.90
21312;DHT22;18076;52.154;10.570;2023-12-07T11:36:08;4.30;99.90
21312;DHT22;18076;52.154;10.570;2023-12-07T11:38:35;4.30;99.90
21312;DHT22;18076;52.154;10.570;2023-12-07T11:41:01;4.30;99.90
21312;DHT22;18076;52.154;10.570;2023-12-07T11:46:09;4.30;99.90
21312;DHT22;18076;52.154;10.570;2023-12-07T11:48:34;4.30;99.90
21312;DHT22;18076;52.154;10.570;2023-12-07T11:51:01;4.40;99.90
21312;DHT22;18076;52.154;10.570;2023-12-07T11:53:27;4.40;99.90
21312;DHT22;18076;52.154;10.570;2023-12-07T11:55:55;4.40;99.90
21312;DHT22;18076;52.154;10.570;2023-12-07T11:58:21;4.50;99.90
21312;DHT22;18076;52.154;10.570;2023-12-07T12:00:47;4.50;99.90
21312;DHT22;18076;52.154;10.570;2023-12-07T12:03:13;4.50;99.90
21312;DHT22;18076;52.154;10.570;2023-12-07T12:05:41;4.60;99.90
21312;DHT22;18076;52.154;10.570;2023-12-07T12:08:08;4.70;99.90
21312;DHT22;18076;52.154;10.570;2023-12-07T12:10:34;4.70;99.90
21312;DHT22;18076;52.154;10.570;2023-12-07T12:13:03;4.70;99.90
21312;DHT22;18076;52.154;10.570;2023-12-07T12:15:28;4.70;99.90
21312;DHT22;18076;52.154;10.570;2023-12-07T12:17:58;4.70;99.90
21312;DHT22;18076;52.154;10.570;2023-12-07T12:20:24;4.70;99.90
21312;DHT22;18076;52.154;10.570;2023-12-07T12:22:50;4.60;99.90
21312;DHT22;18076;52.154;10.570;2023-12-07T12:25:16;4.60;99.90
21312;DHT22;18076;52.154;10.570;2023-12-07T12:28:03;4.60;99.90
21312;DHT22;18076;52.154;10.570;2023-12-07T12:30:29;4.60;99.90
21312;DHT22;18076;52.154;10.570;2023-12-07T12:32:54;4.60;99.90
21312;DHT22;18076;52.154;10.570;2023-12-07T12:35:20;4.60;99.90
21312;DHT22;18076;52.154;10.570;2023-12-07T12:37:46;4.70;99.90
21312;DHT22;18076;52.154;10.570;2023-12-07T12:40:12;4.70;99.90
21312;DHT22;18076;52.154;10.570;2023-12-07T12:42:48;4.60;99.90
21312;DHT22;18076;52.154;10.570;2023-12-07T12:45:14;4.70;99.90
21312;DHT22;18076;52.154;10.570;2023-12-07T12:47:40;4.70;99.90
21312;DHT22;18076;52.154;10.570;2023-12-07T12:50:06;4.70;99.90
21312;DHT22;18076;52.154;10.570;2023-12-07T12:52:33;4.60;99.90
21312;DHT22;18076;52.154;10.570;2023-12-07T12:54:58;4.70;99.90
21312;DHT22;18076;52.154;10.570;2023-12-07T12:57:24;4.60;99.90
21312;DHT22;18076;52.154;10.570;2023-12-07T12:59:50;4.70;99.90
21312;DHT22;18076;52.154;10.570;2023-12-07T13:02:22;4.70;99.90
21312;DHT22;18076;52.154;10.570;2023-12-07T13:04:47;4.70;99.90
21312;DHT22;18076;52.154;10.570;2023-12-07T13:07:13;4.70;99.90
21312;DHT22;18076;52.154;10.570;2023-12-07T13:09:39;4.70;99.90
21312;DHT22;18076;52.154;10.570;2023-12-07T13:12:05;4.70;99.90
21312;DHT22;18076;52.154;10.570;2023-12-07T13:14:31;4.70;99.90
21312;DHT22;18076;52.154;10.570;2023-12-07T13:16:57;4.60;99.90
21312;DHT22;18076;52.154;10.570;2023-12-07T13:19:23;4.60;99.90
21312;DHT22;18076;52.154;10.570;2023-12-07T13:21:48;4.60;99.90
21312;DHT22;18076;52.154;10.570;2023-12-07T13:24:14;4.70;99.90
21312;DHT22;18076;52.154;10.570;2023-12-07T13:26:40;4.70;99.90
21312;DHT22;18076;52.154;10.570;2023-12-07T13:29:05;4.70;99.90
21312;DHT22;18076;52.154;10.570;2023-12-07T13:31:33;4.70;99.90
21312;DHT22;18076;52.154;10.570;2023-12-07T13:33:58;4.70;99.90
21312;DHT22;18076;52.154;10.570;2023-12-07T13:36:24;4.80;99.90
21312;DHT22;18076;52.154;10.570;2023-12-07T13:38:52;4.80;99.90
21312;DHT22;18076;52.154;10.570;2023-12-07T13:41:18;4.80;99.90
21312;DHT22;18076;52.154;10.570;2023-12-07T13:43:43;4.80;99.90
21312;DHT22;18076;52.154;10.570;2023-12-07T13:46:09;4.70;99.90
21312;DHT22;18076;52.154;10.570;2023-12-07T13:48:35;4.70;99.90
21312;DHT22;18076;52.154;10.570;2023-12-07T13:51:01;4.70;99.90
21312;DHT22;18076;52.154;10.570;2023-12-07T13:53:27;4.70;99.90
21312;DHT22;18076;52.154;10.570;2023-12-07T13:55:53;4.70;99.90
21312;DHT22;18076;52.154;10.570;2023-12-07T13:58:18;4.70;99.90
21312;DHT22;18076;52.154;10.570;2023-12-07T14:00:44;4.70;99.90
21312;DHT22;18076;52.154;10.570;2023-12-07T14:03:11;4.70;99.90
21312;DHT22;18076;52.154;10.570;2023-12-07T14:05:37;4.60;99.90
21312;DHT22;18076;52.154;10.570;2023-12-07T14:08:23;4.60;99.90
21312;DHT22;18076;52.154;10.570;2023-12-07T14:10:51;4.60;99.90
21312;DHT22;18076;52.154;10.570;2023-12-07T14:13:16;4.60;99.90
21312;DHT22;18076;52.154;10.570;2023-12-07T14:15:43;4.50;99.90
21312;DHT22;18076;52.154;10.570;2023-12-07T14:18:08;4.50;99.90
21312;DHT22;18076;52.154;10.570;2023-12-07T14:20:34;4.50;99.90
21312;DHT22;18076;52.154;10.570;2023-12-07T14:22:59;4.40;99.90
21312;DHT22;18076;52.154;10.570;2023-12-07T14:25:29;4.30;99.90
21312;DHT22;18076;52.154;10.570;2023-12-07T14:27:55;4.30;99.90
21312;DHT22;18076;52.154;10.570;2023-12-07T14:30:21;4.20;99.90
21312;DHT22;18076;52.154;10.570;2023-12-07T14:32:47;4.20;99.90
21312;DHT22;18076;52.154;10.570;2023-12-07T14:35:29;4.20;99.90
21312;DHT22;18076;52.154;10.570;2023-12-07T14:38:00;4.20;99.90
21312;DHT22;18076;52.154;10.570;2023-12-07T14:40:26;4.10;99.90
21312;DHT22;18076;52.154;10.570;2023-12-07T14:42:51;4.10;99.90
21312;DHT22;18076;52.154;10.570;2023-12-07T14:45:29;4.00;99.90
21312;DHT22;18076;52.154;10.570;2023-12-07T14:47:55;4.00;99.90
21312;DHT22;18076;52.154;10.570;2023-12-07T14:50:21;4.00;99.90
21312;DHT22;18076;52.154;10.570;2023-12-07T14:52:46;4.10;99.90
21312;DHT22;18076;52.154;10.570;2023-12-07T14:55:27;4.00;99.90
21312;DHT22;18076;52.154;10.570;2023-12-07T14:57:53;4.00;99.90
21312;DHT22;18076;52.154;10.570;2023-12-07T15:00:18;3.90;99.90
21312;DHT22;18076;52.154;10.570;2023-12-07T15:02:44;3.80;99.90
21312;DHT22;18076;52.154;10.570;2023-12-07T15:05:09;3.70;99.90
21312;DHT22;18076;52.154;10.570;2023-12-07T15:07:35;3.60;99.90
21312;DHT22;18076;52.154;10.570;2023-12-07T15:10:00;3.60;99.90
21312;DHT22;18076;52.154;10.570;2023-12-07T15:12:26;3.60;99.90
21312;DHT22;18076;52.154;10.570;2023-12-07T15:14:52;3.70;99.90
21312;DHT22;18076;52.154;10.570;2023-12-07T15:17:17;3.70;99.90
21312;DHT22;18076;52.154;10.570;2023-12-07T15:19:43;3.60;99.90
21312;DHT22;18076;52.154;10.570;2023-12-07T15:22:09;3.60;99.90
21312;DHT22;18076;52.154;10.570;2023-12-07T15:24:35;3.60;99.90
21312;DHT22;18076;52.154;10.570;2023-12-07T15:27:00;3.60;99.90
21312;DHT22;18076;52.154;10.570;2023-12-07T15:29:26;3.50;99.90
21312;DHT22;18076;52.154;10.570;2023-12-07T15:31:51;3.40;99.90
21312;DHT22;18076;52.154;10.570;2023-12-07T15:34:17;3.30;99.90
21312;DHT22;18076;52.154;10.570;2023-12-07T15:36:43;3.30;99.90
21312;DHT22;18076;52.154;10.570;2023-12-07T15:39:08;3.30;99.90